createdAt,value
2022-08-20T00:00:20.130Z,24.27
2022-08-20T00:03:33.117Z,22.57
2022-08-20T00:06:37.322Z,24.40
2022-08-20T00:09:41.478Z,21.33
2022-08-20T00:12:45.501Z,25.00
2022-08-20T00:15:48.514Z,21.77
2022-08-20T00:18:51.620Z,23.63
2022-08-20T00:21:58.060Z,22.67
2022-08-20T00:25:01.164Z,29.03
2022-08-20T00:28:06.988Z,21.97
2022-08-20T00:31:12.253Z,26.17
2022-08-20T00:34:14.879Z,22.60
2022-08-20T00:37:19.160Z,20.47
2022-08-20T00:40:26.328Z,21.83
2022-08-20T00:43:33.310Z,19.53
2022-08-20T00:46:36.188Z,19.33
2022-08-20T00:49:38.807Z,18.83
2022-08-20T00:52:49.891Z,20.07
2022-08-20T00:55:53.003Z,17.07
2022-08-20T00:58:56.014Z,16.97
2022-08-20T01:02:01.066Z,16.90
2022-08-20T01:05:05.253Z,21.13
2022-08-20T01:08:09.678Z,20.80
2022-08-20T01:11:16.429Z,16.13
2022-08-20T01:14:30.561Z,13.73
2022-08-20T01:17:36.391Z,15.60
2022-08-20T01:20:42.475Z,15.07
2022-08-20T01:23:54.232Z,13.77
2022-08-20T01:26:58.330Z,14.20
2022-08-20T01:30:02.906Z,14.30
2022-08-20T01:33:09.783Z,13.33
2022-08-20T01:36:13.274Z,11.87
2022-08-20T01:39:18.593Z,14.87
2022-08-20T01:42:30.500Z,14.20
2022-08-20T01:45:33.713Z,13.90
2022-08-20T01:48:36.512Z,14.83
2022-08-20T01:51:39.726Z,11.80
2022-08-20T01:54:42.571Z,14.57
2022-08-20T01:57:48.329Z,11.40
2022-08-20T02:00:50.949Z,11.07
2022-08-20T02:03:54.946Z,11.77
2022-08-20T02:06:59.912Z,12.30
2022-08-20T02:10:02.758Z,12.97
2022-08-20T02:13:09.574Z,13.20
2022-08-20T02:16:12.211Z,43.80
2022-08-20T02:19:18.971Z,13.47
2022-08-20T02:22:28.006Z,14.40
2022-08-20T02:25:36.693Z,13.70
2022-08-20T02:28:41.342Z,11.57
2022-08-20T02:32:24.961Z,11.07
2022-08-20T02:35:12.666Z,11.10
2022-08-20T02:38:15.854Z,15.73
2022-08-20T02:41:21.369Z,9.63
2022-08-20T02:44:25.354Z,9.30
2022-08-20T02:47:28.728Z,10.10
2022-08-20T02:50:31.539Z,9.00
2022-08-20T02:53:37.394Z,10.80
2022-08-20T02:56:40.557Z,11.43
2022-08-20T02:59:45.500Z,12.83
2022-08-20T03:02:48.234Z,11.83
2022-08-20T03:05:54.394Z,10.27
2022-08-20T03:08:57.255Z,11.40
2022-08-20T03:11:59.896Z,11.53
2022-08-20T03:15:04.090Z,12.77
2022-08-20T03:18:06.742Z,9.33
2022-08-20T03:21:10.634Z,8.50
2022-08-20T03:24:17.437Z,10.00
2022-08-20T03:27:21.345Z,9.47
2022-08-20T03:30:31.617Z,9.43
2022-08-20T03:33:35.027Z,10.07
2022-08-20T03:36:37.669Z,13.67
2022-08-20T03:39:40.645Z,13.43
2022-08-20T03:42:43.336Z,14.00
2022-08-20T03:45:47.752Z,11.87
2022-08-20T03:48:50.341Z,15.73
2022-08-20T03:51:59.803Z,14.00
2022-08-20T03:55:02.554Z,12.23
2022-08-20T03:58:07.222Z,14.80
2022-08-20T04:01:45.374Z,11.87
2022-08-20T04:04:33.988Z,12.67
2022-08-20T04:07:37.772Z,10.17
2022-08-20T04:10:40.535Z,9.57
2022-08-20T04:13:43.424Z,9.03
2022-08-20T04:16:49.141Z,10.07
2022-08-20T04:19:51.839Z,9.23
2022-08-20T04:22:58.503Z,9.30
2022-08-20T04:26:01.684Z,8.37
2022-08-20T04:29:04.535Z,11.27
2022-08-20T04:32:08.780Z,9.40
2022-08-20T04:35:15.935Z,7.90
2022-08-20T04:38:20.920Z,11.57
2022-08-20T04:41:24.598Z,10.63
2022-08-20T04:44:27.467Z,9.23
2022-08-20T04:47:34.721Z,8.60
2022-08-20T04:50:39.290Z,10.70
2022-08-20T04:53:42.654Z,14.87
2022-08-20T04:56:45.499Z,8.87
2022-08-20T04:59:48.056Z,10.93
2022-08-20T05:02:52.013Z,11.27
2022-08-20T05:05:54.973Z,12.87
2022-08-20T05:09:00.227Z,10.77
2022-08-20T05:12:02.929Z,13.27
2022-08-20T05:15:06.393Z,13.53
2022-08-20T05:18:10.416Z,9.60
2022-08-20T05:21:13.335Z,12.63
2022-08-20T05:24:18.210Z,12.17
2022-08-20T05:27:24.749Z,14.53
2022-08-20T05:30:33.501Z,15.00
2022-08-20T05:33:40.224Z,15.50
2022-08-20T05:36:45.335Z,13.83
2022-08-20T05:39:49.573Z,15.67
2022-08-20T05:42:53.695Z,13.70
2022-08-20T05:45:58.736Z,15.40
2022-08-20T05:49:02.667Z,18.37
2022-08-20T05:52:06.126Z,15.57
2022-08-20T05:55:11.234Z,17.80
2022-08-20T05:58:18.601Z,18.43
2022-08-20T06:01:21.339Z,15.73
2022-08-20T06:04:28.501Z,17.30
2022-08-20T06:07:31.307Z,22.07
2022-08-20T06:10:33.937Z,17.57
2022-08-20T06:13:36.586Z,15.63
2022-08-20T06:16:39.465Z,20.97
2022-08-20T06:20:02.409Z,16.00
2022-08-20T06:23:06.496Z,17.40
2022-08-20T06:26:09.410Z,17.73
2022-08-20T06:29:12.006Z,17.90
2022-08-20T06:32:14.737Z,13.47
2022-08-20T06:35:20.430Z,14.57
2022-08-20T06:38:23.178Z,18.13
2022-08-20T06:41:36.042Z,15.88
2022-08-20T06:44:39.079Z,18.23
2022-08-20T06:47:42.817Z,16.73
2022-08-20T06:50:48.482Z,15.45
2022-08-20T06:53:51.208Z,16.52
2022-08-20T06:56:54.558Z,14.60
2022-08-20T06:59:58.337Z,15.93
2022-08-20T07:03:02.190Z,14.48
2022-08-20T07:06:06.877Z,13.60
2022-08-20T07:09:09.487Z,14.13
2022-08-20T07:12:12.108Z,12.25
2022-08-20T07:15:15.501Z,15.65
2022-08-20T07:18:28.357Z,12.88
2022-08-20T07:21:33.439Z,12.20
2022-08-20T07:24:40.454Z,14.00
2022-08-20T07:27:44.634Z,11.35
2022-08-20T07:31:13.219Z,9.98
2022-08-20T07:34:16.591Z,10.02
2022-08-20T07:37:20.778Z,7.65
2022-08-20T07:40:27.432Z,10.00
2022-08-20T07:43:30.695Z,8.10
2022-08-20T07:46:33.447Z,12.93
2022-08-20T07:49:39.295Z,8.00
2022-08-20T07:52:43.314Z,7.00
2022-08-20T07:55:54.942Z,7.38
2022-08-20T07:59:02.255Z,8.63
2022-08-20T08:02:05.264Z,8.70
2022-08-20T08:05:08.835Z,7.88
2022-08-20T08:08:17.540Z,8.65
2022-08-20T08:11:20.349Z,4.85
2022-08-20T08:14:27.308Z,7.63
2022-08-20T08:17:31.170Z,6.90
2022-08-20T08:20:33.945Z,7.80
2022-08-20T08:23:50.550Z,3.70
2022-08-20T08:26:53.155Z,4.03
2022-08-20T08:29:55.814Z,4.93
2022-08-20T08:33:16.185Z,4.43
2022-08-20T08:36:18.805Z,6.45
2022-08-20T08:39:22.744Z,6.90
2022-08-20T08:42:29.768Z,4.30
2022-08-20T08:45:41.231Z,4.32
2022-08-20T08:48:47.539Z,4.63
2022-08-20T08:51:56.059Z,5.40
2022-08-20T08:55:04.499Z,4.28
2022-08-20T08:58:16.588Z,4.20
2022-08-20T09:01:55.696Z,6.05
2022-08-20T09:04:46.519Z,3.75
2022-08-20T09:07:53.265Z,6.20
2022-08-20T09:11:02.700Z,6.13
2022-08-20T09:14:05.304Z,7.25
2022-08-20T09:17:08.276Z,3.75
2022-08-20T09:20:11.836Z,3.45
2022-08-20T09:23:14.457Z,4.93
2022-08-20T09:26:18.377Z,4.85
2022-08-20T09:29:20.950Z,5.20
2022-08-20T09:32:26.114Z,4.75
2022-08-20T09:35:29.492Z,3.25
2022-08-20T09:38:32.722Z,6.53
2022-08-20T09:41:36.711Z,8.27
2022-08-20T09:44:40.140Z,3.58
2022-08-20T09:47:55.178Z,3.15
2022-08-20T09:51:06.268Z,5.05
2022-08-20T09:54:08.897Z,6.57
2022-08-20T09:57:13.569Z,6.07
2022-08-20T10:00:16.936Z,5.75
2022-08-20T10:03:20.648Z,4.57
2022-08-20T10:06:23.274Z,5.05
2022-08-20T10:09:25.900Z,4.75
2022-08-20T10:12:29.874Z,4.68
2022-08-20T10:15:33.163Z,4.40
2022-08-20T10:18:36.137Z,9.80
2022-08-20T10:21:39.364Z,6.88
2022-08-20T10:24:42.149Z,5.85
2022-08-20T10:27:46.214Z,4.88
2022-08-20T10:30:48.793Z,4.47
2022-08-20T10:33:51.384Z,8.15
2022-08-20T10:36:53.974Z,5.57
2022-08-20T10:39:56.878Z,6.55
2022-08-20T10:43:00.821Z,8.77
2022-08-20T10:46:03.717Z,5.95
2022-08-20T10:49:06.262Z,9.82
2022-08-20T10:52:08.861Z,7.53
2022-08-20T10:55:11.640Z,5.15
2022-08-20T10:58:15.615Z,6.90
2022-08-20T11:01:31.510Z,5.47
2022-08-20T11:04:35.997Z,9.27
2022-08-20T11:07:55.030Z,7.53
2022-08-20T11:10:59.213Z,10.75
2022-08-20T11:14:03.155Z,7.75
2022-08-20T11:17:06.458Z,6.88
2022-08-20T11:20:11.222Z,9.52
2022-08-20T11:23:13.865Z,9.07
2022-08-20T11:26:23.092Z,8.38
2022-08-20T11:29:29.979Z,8.82
2022-08-20T11:32:34.815Z,6.55
2022-08-20T11:35:49.103Z,8.90
2022-08-20T11:38:52.520Z,7.03
2022-08-20T11:41:55.370Z,9.00
2022-08-20T11:44:59.419Z,4.20
2022-08-20T11:48:01.983Z,6.93
2022-08-20T11:51:05.230Z,5.57
2022-08-20T11:54:07.806Z,6.22
2022-08-20T11:57:11.234Z,8.27
2022-08-20T12:00:19.083Z,8.45
2022-08-20T12:03:21.739Z,8.85
2022-08-20T12:06:24.343Z,7.72
2022-08-20T12:09:26.905Z,6.20
2022-08-20T12:12:29.523Z,6.40
2022-08-20T12:15:33.573Z,6.47
2022-08-20T12:18:36.205Z,6.13
2022-08-20T12:21:38.942Z,9.70
2022-08-20T12:24:41.614Z,6.43
2022-08-20T12:27:44.235Z,10.05
2022-08-20T12:30:48.210Z,7.65
2022-08-20T12:33:50.772Z,9.25
2022-08-20T12:37:01.466Z,6.00
2022-08-20T12:40:08.249Z,9.23
2022-08-20T12:43:11.030Z,7.38
2022-08-20T12:46:14.986Z,6.95
2022-08-20T12:49:17.624Z,6.97
2022-08-20T12:52:21.954Z,9.40
2022-08-20T12:55:24.527Z,9.02
2022-08-20T12:58:27.098Z,11.80
2022-08-20T13:01:31.069Z,7.80
2022-08-20T13:04:33.846Z,6.47
2022-08-20T13:07:37.148Z,5.75
2022-08-20T13:10:44.416Z,6.35
2022-08-20T13:13:47.705Z,6.88
2022-08-20T13:16:56.141Z,7.57
2022-08-20T13:19:58.789Z,7.35
2022-08-20T13:23:01.406Z,6.82
2022-08-20T13:26:05.158Z,7.68
2022-08-20T13:29:07.952Z,12.45
2022-08-20T13:32:11.962Z,5.75
2022-08-20T13:35:15.704Z,7.38
2022-08-20T13:38:18.315Z,7.75
2022-08-20T13:41:20.949Z,7.63
2022-08-20T13:44:32.723Z,7.05
2022-08-20T13:47:39.209Z,7.50
2022-08-20T13:50:41.984Z,4.88
2022-08-20T13:53:44.653Z,6.78
2022-08-20T13:56:49.562Z,4.70
2022-08-20T13:59:54.021Z,6.40
2022-08-20T14:02:58.235Z,3.90
2022-08-20T14:06:01.306Z,12.80
2022-08-20T14:09:03.971Z,9.88
2022-08-20T14:12:07.437Z,7.38
2022-08-20T14:15:11.680Z,5.60
2022-08-20T14:18:16.377Z,3.72
2022-08-20T14:21:19.265Z,5.50
2022-08-20T14:24:21.919Z,7.93
2022-08-20T14:27:30.550Z,6.60
2022-08-20T14:30:33.915Z,12.00
2022-08-20T14:33:41.342Z,7.80
2022-08-20T14:36:47.076Z,6.47
2022-08-20T14:39:55.077Z,5.97
2022-08-20T14:42:57.952Z,6.50
2022-08-20T14:46:00.702Z,9.07
2022-08-20T14:49:04.621Z,7.45
2022-08-20T14:52:07.626Z,5.38
2022-08-20T14:55:12.689Z,7.47
2022-08-20T14:58:16.891Z,4.75
2022-08-20T15:01:19.498Z,8.48
2022-08-20T15:04:23.476Z,5.28
2022-08-20T15:07:34.597Z,5.20
2022-08-20T15:10:37.188Z,5.15
2022-08-20T15:13:39.761Z,5.72
2022-08-20T15:16:42.394Z,7.35
2022-08-20T15:19:46.400Z,4.32
2022-08-20T15:22:50.273Z,7.28
2022-08-20T15:25:53.236Z,4.30
2022-08-20T15:28:55.874Z,6.00
2022-08-20T15:31:58.494Z,4.22
2022-08-20T15:35:02.883Z,6.10
2022-08-20T15:38:05.479Z,6.22
2022-08-20T15:41:08.126Z,9.18
2022-08-20T15:44:10.695Z,9.63
2022-08-20T15:47:21.039Z,3.35
2022-08-20T15:51:00.334Z,4.03
2022-08-20T15:54:06.926Z,7.13
2022-08-20T15:57:13.694Z,3.35
2022-08-20T16:00:19.904Z,5.07
2022-08-20T16:03:47.690Z,6.15
2022-08-20T16:06:55.165Z,5.68
2022-08-20T16:10:06.401Z,4.45
2022-08-20T16:13:20.217Z,6.43
2022-08-20T16:16:32.204Z,6.35
2022-08-20T16:19:41.323Z,14.05
2022-08-20T16:22:47.488Z,6.55
2022-08-20T16:25:59.699Z,6.40
2022-08-20T16:29:11.250Z,6.25
2022-08-20T16:32:25.917Z,8.15
2022-08-20T16:35:32.551Z,5.35
2022-08-20T16:38:44.175Z,7.10
2022-08-20T16:41:50.217Z,6.93
2022-08-20T16:44:55.988Z,4.25
2022-08-20T16:48:02.371Z,6.60
2022-08-20T16:51:09.615Z,8.50
2022-08-20T16:54:14.846Z,6.63
2022-08-20T16:57:18.455Z,4.28
2022-08-20T17:00:25.825Z,4.70
2022-08-20T17:03:38.624Z,6.05
2022-08-20T17:06:47.228Z,6.13
2022-08-20T17:09:51.450Z,6.10
2022-08-20T17:12:59.336Z,5.00
2022-08-20T17:16:04.783Z,5.45
2022-08-20T17:19:14.670Z,3.97
2022-08-20T17:22:20.190Z,4.03
2022-08-20T17:25:32.332Z,4.35
2022-08-20T17:28:36.088Z,3.70
2022-08-20T17:31:41.744Z,3.33
2022-08-20T17:34:46.729Z,5.70
2022-08-20T17:37:54.037Z,4.95
2022-08-20T17:41:02.286Z,2.70
2022-08-20T17:44:07.261Z,3.20
2022-08-20T17:47:16.008Z,8.95
2022-08-20T17:50:22.172Z,4.72
2022-08-20T17:53:28.334Z,6.22
2022-08-20T17:56:36.471Z,4.35
2022-08-20T18:00:02.647Z,7.93
2022-08-20T18:03:15.471Z,4.40
2022-08-20T18:06:28.484Z,10.40
2022-08-20T18:09:41.228Z,8.27
2022-08-20T18:12:59.663Z,3.30
2022-08-20T18:16:04.810Z,3.50
2022-08-20T18:19:16.006Z,3.47
2022-08-20T18:22:23.186Z,6.30
2022-08-20T18:25:32.370Z,3.08
2022-08-20T18:28:41.786Z,3.88
2022-08-20T18:31:48.649Z,3.90
2022-08-20T18:34:52.642Z,3.42
2022-08-20T18:37:55.319Z,5.13
2022-08-20T18:41:14.095Z,8.45
2022-08-20T18:44:34.761Z,5.15
2022-08-20T18:47:46.096Z,7.38
2022-08-20T18:50:53.201Z,4.35
2022-08-20T18:53:55.914Z,3.95
2022-08-20T18:57:08.286Z,2.88
2022-08-20T19:00:16.709Z,3.42
2022-08-20T19:03:24.569Z,4.93
2022-08-20T19:06:39.596Z,3.50
2022-08-20T19:10:09.226Z,3.53
2022-08-20T19:13:48.179Z,3.87
2022-08-20T19:16:56.932Z,4.97
2022-08-20T19:20:01.095Z,5.30
2022-08-20T19:23:08.529Z,5.87
2022-08-20T19:26:24.856Z,3.37
2022-08-20T19:29:31.512Z,6.47
2022-08-20T19:32:35.502Z,6.07
2022-08-20T19:35:38.323Z,7.13
2022-08-20T19:38:46.218Z,6.20
2022-08-20T19:41:52.371Z,5.00
2022-08-20T19:44:57.403Z,5.47
2022-08-20T19:48:14.907Z,4.50
2022-08-20T19:51:27.568Z,6.97
2022-08-20T19:54:31.008Z,6.40
2022-08-20T19:58:16.892Z,7.50
2022-08-20T20:01:29.750Z,6.90
2022-08-20T20:04:41.175Z,4.67
2022-08-20T20:07:59.561Z,4.27
2022-08-20T20:11:03.127Z,4.17
2022-08-20T20:14:09.387Z,5.63
2022-08-20T20:17:22.508Z,3.33
2022-08-20T20:20:31.612Z,5.50
2022-08-20T20:23:45.729Z,7.07
2022-08-20T20:26:50.555Z,8.27
2022-08-20T20:29:59.649Z,7.17
2022-08-20T20:33:11.450Z,8.90
2022-08-20T20:36:19.182Z,5.73
2022-08-20T20:39:29.129Z,8.30
2022-08-20T20:42:31.838Z,7.13
2022-08-20T20:45:37.512Z,6.37
2022-08-20T20:48:44.014Z,8.00
2022-08-20T20:51:57.048Z,8.07
2022-08-20T20:55:13.543Z,7.17
2022-08-20T20:58:16.144Z,5.80
2022-08-20T21:01:38.582Z,7.57
2022-08-20T21:04:44.721Z,8.43
2022-08-20T21:07:51.791Z,5.80
2022-08-20T21:10:54.348Z,9.60
2022-08-20T21:13:56.947Z,7.30
2022-08-20T21:17:01.957Z,7.13
2022-08-20T21:20:07.458Z,7.63
2022-08-20T21:23:11.414Z,9.33
2022-08-20T21:26:14.241Z,6.50
2022-08-20T21:29:32.118Z,6.23
2022-08-20T21:32:35.193Z,10.70
2022-08-20T21:35:37.761Z,4.50
2022-08-20T21:38:41.731Z,6.93
2022-08-20T21:41:45.790Z,7.13
2022-08-20T21:44:49.723Z,9.03
2022-08-20T21:47:52.794Z,8.60
2022-08-20T21:50:55.378Z,5.13
2022-08-20T21:53:59.277Z,5.20
2022-08-20T21:57:04.413Z,4.80
2022-08-20T22:00:16.006Z,5.43
2022-08-20T22:03:20.067Z,5.70
2022-08-20T22:06:23.087Z,4.90
2022-08-20T22:09:27.049Z,9.87
2022-08-20T22:12:29.646Z,7.80
2022-08-20T22:15:32.227Z,10.60
2022-08-20T22:18:35.111Z,11.07
2022-08-20T22:21:39.344Z,10.47
2022-08-20T22:24:43.361Z,8.90
2022-08-20T22:27:45.960Z,7.80
2022-08-20T22:30:48.899Z,9.50
2022-08-20T22:33:51.775Z,9.93
2022-08-20T22:36:55.374Z,6.70
2022-08-20T22:39:59.898Z,7.77
2022-08-20T22:43:02.875Z,8.63
2022-08-20T22:46:06.027Z,8.80
2022-08-20T22:49:12.912Z,12.23
2022-08-20T22:52:15.746Z,7.17
2022-08-20T22:55:20.284Z,8.60
2022-08-20T22:58:30.891Z,6.97
2022-08-20T23:01:34.697Z,9.10
2022-08-20T23:04:38.085Z,11.50
2022-08-20T23:07:40.815Z,6.47
2022-08-20T23:10:45.048Z,9.93
2022-08-20T23:13:47.840Z,7.37
2022-08-20T23:16:59.701Z,11.43
2022-08-20T23:20:02.926Z,8.17
2022-08-20T23:23:06.639Z,6.87
2022-08-20T23:26:12.826Z,7.13
2022-08-20T23:29:15.769Z,5.43
2022-08-20T23:32:25.940Z,6.80
2022-08-20T23:35:32.207Z,4.30
2022-08-20T23:38:35.994Z,6.50
2022-08-20T23:41:47.512Z,7.23
2022-08-20T23:44:50.780Z,4.80
2022-08-20T23:47:53.806Z,6.57
2022-08-20T23:50:56.513Z,6.33
2022-08-20T23:53:59.143Z,11.97
2022-08-20T23:57:03.146Z,7.60
